Time;durP1;ratioP1;P1;durP2;ratioP2;P2;SDS_P1;SDS_P2;PMS_P1;PMS_P2;Temp;Humidity;BMP_temperature;BMP_pressure;BME280_temperature;BME280_humidity;BME280_pressure;Samples;Min_cycle;Max_cycle;Signal;HPM_P1;HPM_P2
2022/02/16 00:00:08;;;;;;;72.05;35.75;;;;;;;4.45;68.41;98268.72;5107465;28;20513;-74
2022/02/16 00:02:33;;;;;;;70.68;33.55;;;;;;;4.46;68.80;98270.34;5107072;28;20372;-74
2022/02/16 00:04:58;;;;;;;63.55;32.95;;;;;;;4.44;67.89;98281.47;5090088;28;20031;-74
2022/02/16 00:07:24;;;;;;;66.00;33.58;;;;;;;4.44;69.08;98272.50;5108103;28;20099;-74
2022/02/16 00:09:49;;;;;;;63.83;32.63;;;;;;;4.48;68.95;98268.19;5111256;28;20034;-74
2022/02/16 00:12:15;;;;;;;65.43;33.40;;;;;;;4.46;68.71;98273.06;5112962;28;20102;-74
2022/02/16 00:14:40;;;;;;;66.72;33.05;;;;;;;4.50;68.32;98278.78;5112662;28;20129;-73
2022/02/16 00:17:05;;;;;;;63.97;32.15;;;;;;;4.51;68.58;98275.81;5093538;28;20486;-73
2022/02/16 00:19:31;;;;;;;62.83;32.33;;;;;;;4.50;68.34;98279.59;5112584;28;20028;-73
2022/02/16 00:21:56;;;;;;;58.05;30.02;;;;;;;4.52;68.60;98273.91;5112142;28;20019;-73
2022/02/16 00:24:22;;;;;;;61.47;33.75;;;;;;;4.52;68.60;98272.00;5112254;28;21329;-74
2022/02/16 00:26:47;;;;;;;59.60;31.63;;;;;;;4.52;68.52;98274.72;5112328;28;20391;-72
2022/02/16 00:29:12;;;;;;;64.82;31.70;;;;;;;4.54;68.79;98275.28;5112176;28;20038;-73
2022/02/16 00:31:40;;;;;;;62.72;32.40;;;;;;;4.54;68.65;98264.41;5111863;28;20023;-74
2022/02/16 00:34:06;;;;;;;63.30;32.70;;;;;;;4.52;68.74;98266.56;5112123;28;20016;-73
2022/02/16 00:36:31;;;;;;;62.00;32.53;;;;;;;4.50;68.86;98259.78;5111929;28;20391;-71
2022/02/16 00:38:57;;;;;;;60.08;32.88;;;;;;;4.49;69.01;98256.22;5112004;28;20107;-72
2022/02/16 00:41:22;;;;;;;60.17;31.65;;;;;;;4.51;69.14;98251.34;5111822;28;20417;-72
2022/02/16 00:43:48;;;;;;;59.28;30.90;;;;;;;4.50;69.31;98252.44;5111918;28;20031;-71
2022/02/16 00:46:14;;;;;;;61.20;32.85;;;;;;;4.47;69.44;98248.34;5111829;28;20478;-73
2022/02/16 00:48:40;;;;;;;61.00;30.33;;;;;;;4.44;69.52;98235.31;5111696;28;20030;-73
2022/02/16 00:51:05;;;;;;;65.78;32.95;;;;;;;4.42;69.56;98232.03;5111378;28;20760;-73
2022/02/16 00:53:31;;;;;;;64.93;32.60;;;;;;;4.39;69.13;98229.03;5111766;28;20126;-73
2022/02/16 00:55:56;;;;;;;81.97;38.70;;;;;;;4.39;69.50;98220.88;5110945;28;20084;-73
2022/02/16 00:58:21;;;;;;;84.00;39.67;;;;;;;4.39;69.29;98218.97;5113001;27;20030;-73
2022/02/16 01:00:48;;;;;;;67.55;32.55;;;;;;;4.38;69.60;98213.81;5111676;28;20106;-73
2022/02/16 01:03:13;;;;;;;68.25;35.15;;;;;;;4.34;69.34;98216.22;5111645;28;20565;-73
2022/02/16 01:05:39;;;;;;;64.07;35.05;;;;;;;4.30;68.90;98210.50;5113283;27;20026;-73
2022/02/16 01:08:09;;;;;;;60.45;31.25;;;;;;;4.27;69.37;98210.22;5110858;28;20054;-73
2022/02/16 01:10:36;;;;;;;59.83;32.03;;;;;;;4.22;68.77;98212.91;5112478;27;20103;-73
2022/02/16 01:13:01;;;;;;;58.05;30.00;;;;;;;4.16;69.08;98203.88;5111408;28;20063;-74
2022/02/16 01:15:27;;;;;;;57.92;29.90;;;;;;;4.11;68.92;98201.97;5111444;28;20055;-73
2022/02/16 01:17:52;;;;;;;60.35;30.75;;;;;;;4.10;69.11;98208.47;5110974;28;20023;-73
2022/02/16 01:20:17;;;;;;;55.22;28.48;;;;;;;4.05;69.07;98208.41;5110743;28;20016;-74
2022/02/16 01:22:43;;;;;;;58.60;32.20;;;;;;;4.02;69.69;98198.06;5110680;28;20084;-73
2022/02/16 01:25:08;;;;;;;58.42;31.42;;;;;;;3.99;68.88;98195.88;5111053;28;20382;-73
2022/02/16 01:27:34;;;;;;;51.25;27.48;;;;;;;3.98;70.21;98194.25;5110775;28;20027;-74
2022/02/16 01:29:59;;;;;;;56.13;31.60;;;;;;;3.92;69.07;98193.41;5110896;28;20027;-73
2022/02/16 01:32:25;;;;;;;54.40;29.38;;;;;;;3.87;69.02;98187.94;5110795;28;20023;-74
2022/02/16 01:34:50;;;;;;;63.10;32.80;;;;;;;3.81;70.03;98178.09;5110984;28;20485;-74
2022/02/16 01:37:15;;;;;;;52.47;29.20;;;;;;;3.77;69.98;98172.41;5110512;28;20031;-73
2022/02/16 01:39:41;;;;;;;54.17;27.88;;;;;;;3.74;70.21;98175.63;5110432;28;20076;-73
2022/02/16 01:42:06;;;;;;;59.35;31.70;;;;;;;3.71;70.62;98166.09;5110598;28;20026;-74
2022/02/16 01:44:32;;;;;;;58.38;31.25;;;;;;;3.69;70.77;98173.66;5110588;28;20885;-73
2022/02/16 01:47:04;;;;;;;52.15;29.92;;;;;;;3.65;70.15;98166.31;5110401;28;20025;-74
2022/02/16 01:49:33;;;;;;;60.03;31.60;;;;;;;3.63;70.55;98171.19;5110410;28;20023;-73
2022/02/16 01:51:59;;;;;;;56.97;30.13;;;;;;;3.58;69.81;98178.19;5107649;28;20019;-73
2022/02/16 01:54:24;;;;;;;52.60;28.48;;;;;;;3.55;70.55;98165.13;5110153;28;20043;-73
2022/02/16 01:56:51;;;;;;;54.03;28.58;;;;;;;3.55;70.40;98162.44;5091829;28;20403;-73
2022/02/16 01:59:21;;;;;;;59.03;29.90;;;;;;;3.52;70.76;98168.38;5109396;28;20023;-73
2022/02/16 02:01:47;;;;;;;59.55;30.35;;;;;;;3.52;71.29;98173.78;5108947;28;20030;-73
2022/02/16 02:04:17;;;;;;;57.13;29.67;;;;;;;3.51;70.35;98174.06;5110050;28;20015;-73
2022/02/16 02:06:43;;;;;;;;;;;;;;;3.49;70.76;98163.44;5110440;28;20320;-73
2022/02/16 02:09:10;;;;;;;48.13;26.83;;;;;;;3.48;70.76;98159.09;5109496;28;20398;-73
2022/02/16 02:11:35;;;;;;;47.50;25.70;;;;;;;3.46;70.88;98158.56;5109759;28;20112;-73
2022/02/16 02:14:03;;;;;;;52.70;28.50;;;;;;;3.47;70.51;98159.38;5110004;28;20481;-73
2022/02/16 02:16:29;;;;;;;55.88;29.40;;;;;;;3.46;70.33;98155.03;5109916;28;20027;-73
2022/02/16 02:18:56;;;;;;;58.42;29.80;;;;;;;3.44;70.38;98158.00;5091070;28;20034;-73
2022/02/16 02:21:22;;;;;;;51.28;28.77;;;;;;;3.42;70.84;98157.44;5109921;28;20148;-73
2022/02/16 02:23:49;;;;;;;49.10;26.42;;;;;;;3.41;70.78;98153.91;5109775;28;20020;-73
2022/02/16 02:26:16;;;;;;;49.33;26.90;;;;;;;3.41;71.09;98150.38;5109961;28;20024;-73
2022/02/16 02:28:42;;;;;;;51.35;26.25;;;;;;;3.39;70.68;98155.25;5109800;28;20077;-73
2022/02/16 02:31:08;;;;;;;50.95;28.58;;;;;;;3.39;70.68;98152.53;5109696;28;20019;-73
2022/02/16 02:33:34;;;;;;;50.50;28.55;;;;;;;3.41;70.68;98161.22;5109070;28;20035;-73
2022/02/16 02:36:00;;;;;;;47.38;25.75;;;;;;;3.40;71.24;98146.03;5091513;28;20031;-73
2022/02/16 02:38:26;;;;;;;51.80;29.02;;;;;;;3.40;70.46;98143.34;5109125;28;20019;-73
2022/02/16 02:40:56;;;;;;;52.65;28.65;;;;;;;3.41;70.77;98147.69;5109604;28;20024;-73
2022/02/16 02:43:23;;;;;;;50.67;27.90;;;;;;;3.38;70.72;98134.63;5108202;28;20111;-73
2022/02/16 02:45:48;;;;;;;53.55;28.50;;;;;;;3.36;70.82;98129.44;5109458;28;20107;-73
2022/02/16 02:48:14;;;;;;;52.50;27.13;;;;;;;3.35;71.41;98140.56;5109133;28;20036;-73
2022/02/16 02:50:39;;;;;;;53.17;29.10;;;;;;;3.31;71.46;98142.16;5109242;28;20455;-73
2022/02/16 02:53:05;;;;;;;52.08;26.65;;;;;;;3.31;71.39;98144.88;5108721;28;20097;-73
2022/02/16 02:55:30;;;;;;;51.70;29.67;;;;;;;3.28;70.94;98147.00;5109398;28;20024;-71
2022/02/16 02:57:55;;;;;;;59.85;29.67;;;;;;;3.26;71.23;98146.44;5108754;28;20049;-70
2022/02/16 03:00:21;;;;;;;56.35;28.13;;;;;;;3.23;71.57;98144.25;5090571;28;20024;-71
2022/02/16 03:02:46;;;;;;;48.83;27.42;;;;;;;3.22;71.63;98153.44;5109469;28;20111;-71
2022/02/16 03:05:12;;;;;;;53.88;29.55;;;;;;;3.22;71.25;98155.34;5109281;28;20023;-72
2022/02/16 03:07:40;;;;;;;51.22;27.15;;;;;;;3.20;71.34;98155.59;5107916;28;20022;-71
2022/02/16 03:10:06;;;;;;;56.50;30.15;;;;;;;3.18;71.29;98155.03;5108773;28;20077;-71
2022/02/16 03:12:32;;;;;;;54.60;29.17;;;;;;;3.19;71.52;98150.44;5109016;28;20803;-71
2022/02/16 03:14:57;;;;;;;49.88;27.13;;;;;;;3.19;71.53;98140.41;5105939;28;20096;-71
2022/02/16 03:17:24;;;;;;;56.65;30.75;;;;;;;3.21;71.58;98151.00;5108033;28;20023;-71
2022/02/16 03:19:50;;;;;;;56.10;29.92;;;;;;;3.22;72.15;98148.03;5108769;28;20024;-71
2022/02/16 03:22:16;;;;;;;59.83;32.90;;;;;;;3.24;71.73;98145.09;5108672;28;20483;-71
2022/02/16 03:24:41;;;;;;;58.25;31.05;;;;;;;3.26;71.94;98134.81;5090964;28;20016;-70
2022/02/16 03:27:06;;;;;;;50.88;28.70;;;;;;;3.30;71.82;98137.81;5108996;28;20483;-70
2022/02/16 03:29:32;;;;;;;53.40;29.27;;;;;;;3.35;71.99;98141.38;5108970;28;20031;-71
2022/02/16 03:31:57;;;;;;;52.25;28.48;;;;;;;3.39;72.55;98134.38;5108461;28;20020;-71
2022/02/16 03:34:23;;;;;;;47.83;27.02;;;;;;;3.42;71.73;98136.56;5109063;28;20031;-71
2022/02/16 03:36:48;;;;;;;54.45;28.50;;;;;;;3.48;72.17;98142.03;5108848;28;20032;-71
2022/02/16 03:39:13;;;;;;;50.42;28.77;;;;;;;3.49;72.00;98136.34;5108441;28;20685;-71
2022/02/16 03:41:39;;;;;;;47.88;27.13;;;;;;;3.55;72.78;98132.59;5108989;28;20061;-71
2022/02/16 03:44:04;;;;;;;50.88;28.48;;;;;;;3.59;72.56;98130.22;5109395;28;20498;-71
2022/02/16 03:46:30;;;;;;;47.17;28.10;;;;;;;3.63;72.87;98130.50;5113021;28;20020;-71
2022/02/16 03:48:55;;;;;;;50.35;28.20;;;;;;;3.65;72.54;98131.88;5112904;28;20476;-71
2022/02/16 03:51:20;;;;;;;52.70;27.42;;;;;;;3.67;72.37;98123.47;5112598;28;20019;-71
2022/02/16 03:53:46;;;;;;;55.67;29.52;;;;;;;3.70;72.52;98120.25;5112760;28;20062;-71
2022/02/16 03:56:11;;;;;;;46.00;26.08;;;;;;;3.72;72.78;98116.19;5112596;28;20448;-71
2022/02/16 03:58:37;;;;;;;49.13;27.33;;;;;;;3.75;72.58;98123.00;5112456;28;20027;-71
2022/02/16 04:01:03;;;;;;;55.33;29.92;;;;;;;3.79;72.20;98116.00;5112372;28;20049;-71
2022/02/16 04:03:28;;;;;;;49.17;26.95;;;;;;;3.83;72.45;98116.28;5112735;28;20510;-71
2022/02/16 04:05:53;;;;;;;49.58;25.33;;;;;;;3.87;72.26;98120.09;5112862;28;20051;-71
2022/02/16 04:08:19;;;;;;;43.30;24.10;;;;;;;3.91;72.15;98117.66;5112642;28;20047;-71
2022/02/16 04:10:44;;;;;;;46.20;24.83;;;;;;;3.92;72.86;98112.00;5112454;28;20463;-71
2022/02/16 04:13:10;;;;;;;49.85;26.70;;;;;;;3.95;72.50;98110.66;5112834;28;20095;-71
2022/02/16 04:15:36;;;;;;;51.60;26.10;;;;;;;3.97;72.06;98111.22;5112660;28;20016;-71
2022/02/16 04:18:02;;;;;;;49.88;26.58;;;;;;;3.97;71.91;98117.47;5112574;28;20019;-71
2022/02/16 04:20:27;;;;;;;45.90;24.20;;;;;;;3.99;72.41;98111.75;5112320;28;20075;-71
2022/02/16 04:22:53;;;;;;;44.22;24.27;;;;;;;4.00;72.83;98118.81;5112649;28;20187;-71
2022/02/16 04:25:18;;;;;;;45.03;24.52;;;;;;;4.01;72.11;98115.03;5093733;28;20492;-71
2022/02/16 04:27:45;;;;;;;47.03;25.65;;;;;;;4.02;72.65;98113.97;5113634;28;20020;-71
2022/02/16 04:30:12;;;;;;;47.90;24.30;;;;;;;4.02;72.61;98116.66;5113807;28;20035;-71
2022/02/16 04:32:38;;;;;;;49.65;27.13;;;;;;;4.01;72.23;98109.59;5109767;28;20023;-71
2022/02/16 04:35:05;;;;;;;42.65;23.35;;;;;;;4.02;72.28;98113.97;5112590;28;20032;-71
2022/02/16 04:37:31;;;;;;;42.38;24.42;;;;;;;4.02;72.22;98101.22;5113110;28;20024;-72
2022/02/16 04:39:57;;;;;;;41.65;23.58;;;;;;;4.02;72.67;98106.66;5113041;28;20367;-71
2022/02/16 04:42:22;;;;;;;42.10;23.35;;;;;;;4.02;72.94;98111.25;5112167;28;20020;-71
2022/02/16 04:44:48;;;;;;;43.78;24.98;;;;;;;4.02;72.18;98120.22;5112918;28;20034;-71
2022/02/16 04:47:13;;;;;;;39.80;22.15;;;;;;;4.02;73.09;98113.97;5094738;28;20059;-72
2022/02/16 04:49:38;;;;;;;46.17;24.38;;;;;;;4.02;72.75;98111.25;5112656;28;20428;-71
2022/02/16 04:52:04;;;;;;;47.78;24.58;;;;;;;4.00;73.13;98108.81;5093990;28;20030;-72
2022/02/16 04:54:30;;;;;;;47.17;25.05;;;;;;;4.01;72.95;98106.91;5112769;28;20036;-71
2022/02/16 04:56:55;;;;;;;44.47;24.23;;;;;;;4.01;72.99;98101.47;5111934;28;20081;-73
2022/02/16 04:59:21;;;;;;;40.45;22.90;;;;;;;4.00;72.56;98108.81;5092632;28;20468;-73
2022/02/16 05:01:46;;;;;;;41.40;22.35;;;;;;;4.02;72.43;98103.94;5112317;28;20028;-73
2022/02/16 05:04:11;;;;;;;42.78;24.52;;;;;;;4.01;72.12;98107.72;5112775;28;20024;-73
2022/02/16 05:06:38;;;;;;;42.20;22.80;;;;;;;4.02;72.89;98097.69;5111881;28;20035;-73
2022/02/16 05:09:06;;;;;;;42.15;22.70;;;;;;;4.00;72.55;98100.66;5112123;28;20031;-73
2022/02/16 05:11:31;;;;;;;42.50;21.38;;;;;;;3.99;72.68;98104.47;5112062;28;20051;-73
2022/02/16 05:13:57;;;;;;;42.20;23.85;;;;;;;3.97;72.49;98095.75;5093725;28;20586;-73
2022/02/16 05:16:22;;;;;;;41.33;22.70;;;;;;;3.99;73.42;98114.47;5112510;28;20034;-73
2022/02/16 05:18:48;;;;;;;39.15;22.65;;;;;;;3.96;72.96;98104.16;5112429;28;20356;-73
2022/02/16 05:21:14;;;;;;;39.60;22.67;;;;;;;3.96;72.79;98107.69;5112525;28;20403;-73
2022/02/16 05:23:39;;;;;;;42.45;23.60;;;;;;;3.94;72.70;98099.00;5112152;28;20137;-73
2022/02/16 05:26:05;;;;;;;42.35;22.23;;;;;;;3.91;73.01;98096.81;5112252;28;20095;-73
2022/02/16 05:28:30;;;;;;;41.65;23.95;;;;;;;3.92;72.61;98106.56;5111846;28;20363;-73
2022/02/16 05:30:56;;;;;;;45.33;24.92;;;;;;;3.90;72.70;98106.03;5111758;28;20091;-73
2022/02/16 05:33:21;;;;;;;44.58;24.05;;;;;;;3.87;72.37;98101.91;5111753;28;20109;-73
2022/02/16 05:35:47;;;;;;;47.95;25.40;;;;;;;3.85;72.68;98101.38;5093837;28;20036;-73
2022/02/16 05:38:12;;;;;;;46.33;25.42;;;;;;;3.86;73.05;98099.47;5110714;28;20051;-73
2022/02/16 05:40:38;;;;;;;46.72;25.90;;;;;;;3.84;72.73;98101.63;5111185;28;20491;-73
2022/02/16 05:43:04;;;;;;;47.13;23.25;;;;;;;3.80;72.45;98097.81;5111462;28;20069;-73
2022/02/16 05:45:31;;;;;;;50.13;27.20;;;;;;;3.78;72.62;98094.53;5111017;28;20032;-73
2022/02/16 05:47:56;;;;;;;56.63;29.70;;;;;;;3.72;72.03;98104.53;5112687;28;20072;-73
2022/02/16 05:50:22;;;;;;;97.50;40.15;;;;;;;3.67;73.06;98105.31;5112712;28;20402;-73
2022/02/16 05:52:47;;;;;;;120.80;46.53;;;;;;;3.62;72.93;98102.56;5112746;28;20022;-72
2022/02/16 05:55:13;;;;;;;55.20;27.17;;;;;;;3.60;72.98;98101.19;5113024;28;20019;-73
2022/02/16 05:57:38;;;;;;;47.90;25.40;;;;;;;3.58;73.50;98093.31;5112440;28;20028;-73
2022/02/16 06:00:05;;;;;;;44.97;24.42;;;;;;;3.52;72.42;98097.88;5112442;28;20480;-70
2022/02/16 06:02:30;;;;;;;42.35;23.60;;;;;;;3.49;73.25;98092.16;5115997;27;20072;-70
2022/02/16 06:04:56;;;;;;;42.78;23.40;;;;;;;3.45;73.20;98081.03;5112837;28;20463;-71
2022/02/16 06:07:21;;;;;;;45.35;24.27;;;;;;;3.45;73.17;98080.19;5112665;28;20027;-71
2022/02/16 06:09:46;;;;;;;45.80;25.08;;;;;;;3.42;73.63;98087.75;5111678;28;20027;-71
2022/02/16 06:12:12;;;;;;;52.30;24.35;;;;;;;3.39;72.71;98079.34;5107533;28;20124;-71
2022/02/16 06:14:37;;;;;;;42.15;23.05;;;;;;;3.36;73.42;98085.28;5109228;28;20017;-71
2022/02/16 06:17:03;;;;;;;44.75;23.85;;;;;;;3.33;73.69;98075.75;5111995;28;20038;-71
2022/02/16 06:19:28;;;;;;;44.85;21.88;;;;;;;3.32;73.30;98082.25;5111316;28;20023;-71
2022/02/16 06:21:54;;;;;;;46.13;21.88;;;;;;;3.32;73.40;98084.16;5112299;28;20050;-71
2022/02/16 06:24:20;;;;;;;45.28;22.40;;;;;;;3.30;73.05;98073.56;5112412;28;20019;-71
2022/02/16 06:26:46;;;;;;;41.53;21.92;;;;;;;3.29;73.66;98077.34;5112231;28;20484;-71
2022/02/16 06:29:12;;;;;;;41.05;21.20;;;;;;;3.28;72.86;98076.53;5095277;28;20065;-71
2022/02/16 06:31:37;;;;;;;47.50;23.25;;;;;;;3.28;73.55;98075.69;5111890;28;20028;-71
2022/02/16 06:34:03;;;;;;;45.60;23.52;;;;;;;3.25;73.28;98074.34;5111967;28;20464;-71
2022/02/16 06:36:28;;;;;;;56.35;27.05;;;;;;;3.27;73.57;98064.06;5112065;28;20085;-71
2022/02/16 06:38:54;;;;;;;43.67;22.88;;;;;;;3.28;73.67;98075.69;5113427;27;20059;-71
2022/02/16 06:41:21;;;;;;;42.20;22.55;;;;;;;3.28;73.63;98065.69;5111754;28;20016;-71
2022/02/16 06:43:47;;;;;;;42.55;23.13;;;;;;;3.29;73.70;98061.06;5111711;28;20019;-71
2022/02/16 06:46:12;;;;;;;39.28;21.52;;;;;;;3.31;73.14;98060.84;5111380;28;20484;-71
2022/02/16 06:48:38;;;;;;;42.15;20.60;;;;;;;3.31;73.29;98061.63;5110324;27;20024;-71
2022/02/16 06:51:03;;;;;;;42.63;23.13;;;;;;;3.36;73.12;98060.88;5108737;28;20031;-71
2022/02/16 06:53:28;;;;;;;44.15;21.90;;;;;;;3.39;73.86;98049.53;5111576;28;20043;-71
2022/02/16 06:55:54;;;;;;;45.97;23.10;;;;;;;3.44;73.84;98052.28;5111015;28;20043;-71
2022/02/16 06:58:19;;;;;;;44.17;23.35;;;;;;;3.48;73.22;98052.56;5106594;28;20036;-71
2022/02/16 07:00:45;;;;;;;44.22;23.38;;;;;;;3.52;72.96;98048.25;5108811;28;20785;-71
2022/02/16 07:03:10;;;;;;;44.63;23.65;;;;;;;3.56;73.19;98052.88;5093015;28;20115;-72
2022/02/16 07:05:36;;;;;;;48.63;23.83;;;;;;;3.58;73.77;98047.22;5106117;28;20088;-71
2022/02/16 07:08:01;;;;;;;41.72;22.73;;;;;;;3.62;73.71;98042.09;5104020;28;20024;-72
2022/02/16 07:10:26;;;;;;;45.78;22.77;;;;;;;3.67;73.05;98034.78;5105493;28;20038;-70
2022/02/16 07:12:55;;;;;;;38.72;21.67;;;;;;;3.69;73.09;98029.91;5112615;27;20084;-70
2022/02/16 07:15:21;;;;;;;38.30;21.85;;;;;;;3.75;73.22;98030.78;5090693;28;20379;-68
2022/02/16 07:17:46;;;;;;;42.22;22.92;;;;;;;3.80;73.65;98032.69;5109745;28;20031;-69
2022/02/16 07:20:14;;;;;;;41.70;22.40;;;;;;;3.86;73.33;98020.81;5108404;28;20403;-74
2022/02/16 07:22:45;;;;;;;40.60;20.80;;;;;;;3.93;73.64;98026.81;5110525;28;20054;-77
2022/02/16 07:25:11;;;;;;;44.55;22.65;;;;;;;3.97;72.89;98019.78;5107708;28;20036;-77
2022/02/16 07:27:36;;;;;;;40.15;20.58;;;;;;;4.05;73.05;98018.44;5108666;28;20027;-74
2022/02/16 07:30:08;;;;;;;37.83;20.50;;;;;;;4.12;72.43;98020.91;5104299;28;20106;-74
2022/02/16 07:32:36;;;;;;;34.85;18.60;;;;;;;4.20;72.81;98020.41;5105644;28;20080;-78
2022/02/16 07:35:01;;;;;;;41.38;20.38;;;;;;;4.25;72.41;98022.34;5106175;28;20487;-74
2022/02/16 07:37:27;;;;;;;37.22;20.65;;;;;;;4.31;71.99;98010.41;5104956;28;20039;-79
2022/02/16 07:39:54;;;;;;;57.55;31.85;;;;;;;4.38;71.80;98010.97;5108057;28;20413;-74
2022/02/16 07:42:20;;;;;;;55.40;33.55;;;;;;;4.44;71.64;98001.75;5089878;28;20099;-75
2022/02/16 07:44:45;;;;;;;101.43;53.80;;;;;;;4.55;70.98;97999.09;5106180;28;20110;-75
2022/02/16 07:47:12;;;;;;;59.97;27.17;;;;;;;4.60;71.29;97994.47;5108844;28;20031;-74
2022/02/16 07:49:38;;;;;;;47.47;21.98;;;;;;;4.67;70.40;97996.94;5091867;28;20432;-73
2022/02/16 07:52:04;;;;;;;48.15;21.75;;;;;;;4.73;70.10;97993.13;5088087;28;20034;-74
2022/02/16 07:54:30;;;;;;;42.78;24.20;;;;;;;4.80;70.52;97983.91;5104675;28;20054;-76
2022/02/16 07:56:55;;;;;;;34.75;18.60;;;;;;;4.86;69.83;97989.09;5107053;28;20031;-74
2022/02/16 07:59:21;;;;;;;41.53;21.02;;;;;;;4.94;70.15;97982.28;5107427;28;20768;-77
2022/02/16 08:01:46;;;;;;;33.63;18.23;;;;;;;5.02;69.72;97981.75;5107616;28;20594;-77
2022/02/16 08:04:18;;;;;;;32.08;17.48;;;;;;;5.09;68.14;97986.91;5108774;28;20023;-76
2022/02/16 08:06:45;;;;;;;32.67;16.02;;;;;;;5.13;68.59;97985.28;5106328;28;20020;-77
2022/02/16 08:09:10;;;;;;;28.42;15.90;;;;;;;5.19;67.49;97988.81;5108342;28;20023;-78
2022/02/16 08:11:40;;;;;;;28.05;15.48;;;;;;;5.22;68.08;97982.81;5107620;28;20088;-78
2022/02/16 08:14:07;;;;;;;30.77;14.75;;;;;;;5.26;66.78;97983.91;5108360;28;20055;-79
2022/02/16 08:16:34;;;;;;;26.98;15.73;;;;;;;5.28;67.45;97989.91;5107665;28;20035;-80
2022/02/16 08:18:59;;;;;;;30.23;16.23;;;;;;;5.33;67.36;97975.47;5106455;28;20520;-80
2022/02/16 08:21:25;;;;;;;31.35;16.77;;;;;;;5.38;67.12;97974.66;5108808;28;20103;-78
2022/02/16 08:23:51;;;;;;;25.58;13.45;;;;;;;5.45;65.91;97977.94;5089491;28;20127;-76
2022/02/16 08:26:17;;;;;;;27.75;15.32;;;;;;;5.46;66.16;97971.41;5108627;28;20534;-75
2022/02/16 08:28:43;;;;;;;31.13;16.08;;;;;;;5.47;65.89;97971.13;5108504;28;20071;-80
2022/02/16 08:31:08;;;;;;;25.25;14.68;;;;;;;5.50;65.10;97965.13;5109624;28;20019;-81
2022/02/16 08:33:34;;;;;;;28.63;15.63;;;;;;;5.53;65.37;97962.94;5112191;28;20083;-77
2022/02/16 08:35:59;;;;;;;22.92;13.40;;;;;;;5.58;65.47;97958.28;5111819;28;20464;-82
2022/02/16 08:38:24;;;;;;;25.02;13.88;;;;;;;5.64;65.00;97962.63;5091672;28;20062;-78
2022/02/16 08:40:50;;;;;;;29.40;14.75;;;;;;;5.69;64.42;97956.38;5112225;28;20433;-76
2022/02/16 08:43:15;;;;;;;30.10;16.90;;;;;;;5.71;64.77;97940.56;5113611;28;20087;-77
2022/02/16 08:45:44;;;;;;;26.98;14.57;;;;;;;5.78;65.09;97941.09;5112479;27;20058;-77
2022/02/16 08:48:09;;;;;;;29.33;15.80;;;;;;;5.86;64.50;97944.34;5114316;27;20031;-79
2022/02/16 08:50:35;;;;;;;20.42;12.48;;;;;;;5.93;64.06;97940.22;5112559;27;20028;-76
2022/02/16 08:53:00;;;;;;;24.45;12.50;;;;;;;6.00;64.25;97936.38;5112095;28;20479;-77
2022/02/16 08:55:26;;;;;;;21.88;13.63;;;;;;;6.07;63.32;97931.50;5112704;28;20076;-76
2022/02/16 08:57:52;;;;;;;20.88;11.63;;;;;;;6.13;62.74;97933.09;5112604;28;21724;-77
2022/02/16 09:00:17;;;;;;;21.02;11.90;;;;;;;6.13;62.30;97929.53;5112827;28;20351;-76
2022/02/16 09:02:42;;;;;;;22.58;12.50;;;;;;;6.14;61.97;97923.84;5109329;27;20024;-76
2022/02/16 09:05:08;;;;;;;20.38;11.15;;;;;;;6.14;61.75;97929.28;5111071;28;20032;-75
2022/02/16 09:07:33;;;;;;;24.10;11.77;;;;;;;6.15;61.79;97930.09;5109371;28;20483;-79
2022/02/16 09:10:01;;;;;;;20.55;11.20;;;;;;;6.15;61.32;97928.19;5112149;28;20417;-79
2022/02/16 09:12:28;;;;;;;18.13;10.40;;;;;;;6.12;61.80;97912.41;5107974;28;20051;-74
2022/02/16 09:14:53;;;;;;;20.02;11.57;;;;;;;6.16;61.19;97910.75;5110536;28;20031;-79
2022/02/16 09:17:19;;;;;;;58.22;22.02;;;;;;;6.20;61.49;97906.38;5110987;28;20023;-78
2022/02/16 09:19:44;;;;;;;28.05;12.25;;;;;;;6.27;61.42;97905.25;5110549;28;20028;-78
2022/02/16 09:22:12;;;;;;;19.17;11.18;;;;;;;6.31;61.94;97903.59;5111108;28;20019;-77
2022/02/16 09:24:37;;;;;;;20.92;9.88;;;;;;;6.36;59.92;97903.53;5113950;27;20110;-78
2022/02/16 09:27:03;;;;;;;17.48;10.35;;;;;;;6.36;60.62;97901.66;5111104;28;20103;-80
2022/02/16 09:29:28;;;;;;;22.58;12.75;;;;;;;6.39;60.49;97901.09;5090949;28;20433;-81
2022/02/16 09:31:54;;;;;;;17.85;10.13;;;;;;;6.43;60.48;97898.59;5109348;27;20079;-78
2022/02/16 09:34:20;;;;;;;20.85;12.05;;;;;;;6.49;60.46;97902.13;5111105;27;20111;-80
2022/02/16 09:36:46;;;;;;;23.13;10.82;;;;;;;6.52;59.89;97887.94;5094068;28;20074;-79
2022/02/16 09:39:12;;;;;;;15.63;9.90;;;;;;;6.53;58.55;97884.09;5108114;28;20058;-76
2022/02/16 09:41:38;;;;;;;19.00;10.15;;;;;;;6.52;59.80;97886.00;5108774;28;20063;-78
2022/02/16 09:44:04;;;;;;;17.85;9.70;;;;;;;6.53;59.42;97879.47;5108609;28;20427;-81
2022/02/16 09:46:30;;;;;;;17.67;9.85;;;;;;;6.57;59.69;97876.19;5111495;28;20023;-78
2022/02/16 09:48:56;;;;;;;16.20;9.07;;;;;;;6.64;58.63;97865.78;5111324;27;20387;-73
2022/02/16 09:51:23;;;;;;;16.30;9.85;;;;;;;6.68;58.19;97870.34;5110879;27;20023;-76
2022/02/16 09:53:48;;;;;;;17.10;10.00;;;;;;;6.70;58.33;97875.53;5109825;28;20119;-75
2022/02/16 09:56:14;;;;;;;18.13;9.88;;;;;;;6.74;58.50;97862.94;5110409;28;20036;-75
2022/02/16 09:58:39;;;;;;;18.92;9.45;;;;;;;6.77;58.71;97869.75;5091465;28;20039;-75
2022/02/16 10:01:06;;;;;;;17.42;10.35;;;;;;;6.81;57.97;97854.44;5109853;28;20110;-72
2022/02/16 10:03:33;;;;;;;14.43;9.00;;;;;;;6.82;57.87;97856.09;5107581;28;20028;-77
2022/02/16 10:05:58;;;;;;;15.70;9.75;;;;;;;6.78;58.25;97853.09;5108852;28;20487;-73
2022/02/16 10:08:47;;;;;;;15.88;9.35;;;;;;;6.81;58.34;97841.63;5106733;28;20039;-73
2022/02/16 10:11:15;;;;;;;18.10;9.55;;;;;;;6.86;59.25;97848.97;5108345;28;20030;-75
2022/02/16 10:13:41;;;;;;;14.23;7.68;;;;;;;6.90;58.09;97841.84;5106866;27;20054;-73
2022/02/16 10:16:07;;;;;;;15.60;8.85;;;;;;;6.96;57.69;97842.59;5109892;28;20056;-73
2022/02/16 10:18:32;;;;;;;14.38;8.05;;;;;;;6.89;57.62;97837.47;5107960;28;20387;-73
2022/02/16 10:21:09;;;;;;;12.95;8.05;;;;;;;6.83;57.55;97831.25;5108729;28;20027;-74
2022/02/16 10:23:45;;;;;;;13.02;7.97;;;;;;;6.88;58.32;97816.78;5108689;28;20027;-72
2022/02/16 10:26:12;;;;;;;15.50;8.25;;;;;;;6.89;58.09;97826.59;5106067;28;20494;-74
2022/02/16 10:28:46;;;;;;;16.35;8.32;;;;;;;6.90;57.57;97814.56;5106709;28;20034;-79
2022/02/16 10:31:12;;;;;;;12.13;7.22;;;;;;;6.91;57.54;97818.09;5108131;28;20055;-77
2022/02/16 10:33:43;;;;;;;14.70;8.60;;;;;;;6.93;57.51;97805.00;5108358;28;20030;-78
2022/02/16 10:36:14;;;;;;;11.02;7.47;;;;;;;6.93;57.15;97807.72;5109240;28;20741;-76
2022/02/16 10:39:01;;;;;;;13.02;7.97;;;;;;;6.95;57.91;97800.06;5108955;28;20081;-76
2022/02/16 10:41:41;;;;;;;9.18;6.88;;;;;;;7.00;57.00;97787.19;5107818;28;20050;-79
2022/02/16 10:44:16;;;;;;;18.00;8.20;;;;;;;7.03;57.27;97780.34;5108731;28;20031;-79
2022/02/16 10:46:41;;;;;;;11.93;6.93;;;;;;;7.08;57.49;97763.13;5110010;28;20027;-78
2022/02/16 10:49:13;;;;;;;12.65;6.68;;;;;;;7.18;56.42;97764.91;5108080;28;20031;-74
2022/02/16 10:51:40;;;;;;;14.65;6.75;;;;;;;7.23;55.57;97765.69;5110384;28;20506;-76
2022/02/16 10:54:22;;;;;;;11.13;6.13;;;;;;;7.19;55.54;97759.19;5109729;28;20089;-76
2022/02/16 10:56:49;;;;;;;10.77;6.35;;;;;;;7.23;55.30;97762.13;5110372;28;20028;-76
2022/02/16 10:59:16;;;;;;;10.05;6.45;;;;;;;7.29;55.24;97744.59;5107071;28;20744;-77
2022/02/16 11:01:42;;;;;;;14.02;6.85;;;;;;;7.35;55.67;97743.44;5110305;28;20024;-77
2022/02/16 11:04:09;;;;;;;10.32;5.88;;;;;;;7.42;53.98;97746.63;5110717;28;20015;-77
2022/02/16 11:06:42;;;;;;;11.13;5.95;;;;;;;7.43;53.87;97736.50;5109985;28;20042;-78
2022/02/16 11:09:15;;;;;;;8.75;5.63;;;;;;;7.45;54.40;97729.66;5109243;28;20024;-77
2022/02/16 11:11:41;;;;;;;10.68;6.57;;;;;;;7.51;53.78;97713.22;5110554;28;20104;-79
2022/02/16 11:14:08;;;;;;;9.30;6.25;;;;;;;7.58;53.51;97700.00;5110673;28;20074;-79
2022/02/16 11:16:34;;;;;;;10.60;7.00;;;;;;;7.61;53.73;97713.06;5106845;28;20115;-76
2022/02/16 11:19:03;;;;;;;10.63;7.10;;;;;;;7.63;54.11;97693.66;5105099;28;20020;-75
2022/02/16 11:21:29;;;;;;;12.57;7.57;;;;;;;7.69;54.72;97695.22;5108479;28;20030;-76